MMMZ

General Rafael Buelna International Airport

Mazatlán, Mexico
TAF MMMZ 162319Z 1700/1806 25010KT 6SM VC RA SCT020CB BKN100 TX33/1720Z TN25/1712Z TEMPO 1700/1704 5SM TSRA BKN020CB FM170400 04010KT P6SM SCT020 BKN100 PROB40 1710/1714 5SM RA BKN015CB FM171800 20010KT P6SM SCT020 BKN250 TEMPO 1801/1805 VC RA SCT015CB
Issued Valid From Valid To
Jul-16 @ 23:19 UTC
(an hour ago)
Jul-17 @ 00:00 UTC
(22 minutes ago)
Jul-18 @ 06:00 UTC
(-1 days ago)
Jul-17 @ 00:00 to Jul-17 @ 04:00
TAF MMMZ 162319Z 1700/1806 25010KT 6SM VC RA SCT020CB BKN100 TX33/1720Z TN25/1712Z
Wind Visibility Clouds Conditions
250° at 10 knots 6 miles
  • Scattered at 2,000' AGL
  • Broken at 10,000' AGL
  • Rain
Temporary Jul-17 @ 00:00 to Jul-17 @ 04:00
TEMPO 1700/1704 5SM TSRA BKN020CB
Visibility Clouds Conditions
5 miles
  • Broken at 2,000' AGL
  • Thunderstorm
  • Rain
From Jul-17 @ 04:00 to Jul-17 @ 18:00
FM170400 04010KT P6SM SCT020 BKN100
Wind Visibility Clouds
40° at 10 knots Greater than 6 miles
  • Scattered at 2,000' AGL
  • Broken at 10,000' AGL
Probable  (Probability 40%) Jul-17 @ 10:00 to Jul-17 @ 14:00
PROB40 1710/1714 5SM RA BKN015CB
Visibility Clouds Conditions
5 miles
  • Broken at 1,500' AGL
  • Rain
From Jul-17 @ 18:00 to Jul-18 @ 06:00
FM171800 20010KT P6SM SCT020 BKN250
Wind Visibility Clouds
200° at 10 knots Greater than 6 miles
  • Scattered at 2,000' AGL
  • Broken at 25,000' AGL
Temporary Jul-18 @ 01:00 to Jul-18 @ 05:00
TEMPO 1801/1805 VC RA SCT015CB
Clouds Conditions
  • Scattered at 1,500' AGL
  • Rain
TAF MMMZ 162319Z 1700/1806 25010KT 6SM VC RA SCT020CB BKN100 TX33/1720Z TN25/1712Z TEMPO 1700/1704 5SM TSRA BKN020CB FM170400 04010KT P6SM SCT020 BKN100 PROB40 1710/1714 5SM RA BKN015CB FM171800 20010KT P6SM SCT020 BKN250 TEMPO 1801/1805 VC RA SCT015CB
Issued Jul-16 @ 23:19 UTC
(an hour ago)
Valid From Jul-17 @ 00:00 UTC
(22 minutes ago)
Valid To Jul-18 @ 06:00 UTC
(-1 days ago)
Jul-17 @ 00:00 - Jul-17 @ 04:00
Wind Visibility
250° at 10 knots 6 miles
Clouds
  • Scattered at 2,000' AGL
  • Broken at 10,000' AGL
Conditions
  • Rain
Temporary Jul-17 @ 00:00 - Jul-17 @ 04:00
Clouds
  • Broken at 2,000' AGL
Conditions
  • Thunderstorm
  • Rain
From Jul-17 @ 04:00 - Jul-17 @ 18:00
Wind Visibility
40° at 10 knots Greater than 6 miles
Clouds
  • Scattered at 2,000' AGL
  • Broken at 10,000' AGL
Probability 40% Probable Jul-17 @ 10:00 - Jul-17 @ 14:00
Clouds
  • Broken at 1,500' AGL
Conditions
  • Rain
From Jul-17 @ 18:00 - Jul-18 @ 06:00
Wind Visibility
200° at 10 knots Greater than 6 miles
Clouds
  • Scattered at 2,000' AGL
  • Broken at 25,000' AGL
Temporary Jul-18 @ 01:00 - Jul-18 @ 05:00
Clouds
  • Scattered at 1,500' AGL
Conditions
  • Rain